Aviation Digital Data Service (ADDS)

Output produced by METARs form (0854 UTC 26 January 2020)
found at http://www.aviationweather.gov/metar/data/
 
METAR text: EKAH 260850Z AUTO 20004KT 160V240 6000NDV FEW005/// OVC030/// 06/05 Q1014
Conditions at: EKAH (TIRSTRUP (CIV/MI, DK) observed 0850 UTC 26 January 2020
Temperature: 6.0°C (43°F)
Dewpoint: 5.0°C (41°F) [RH = 93%]
Pressure (altimeter): 29.94 inches Hg (1014.0 mb)
Winds: from the SSW (200 degrees) at 5 MPH (4 knots; 2.1 m/s)
Visibility: missing
Ceiling: 3000 feet AGL
Clouds: few clouds at 500 feet AGL
overcast cloud deck at 3000 feet AGL
Weather: no significant weather observed at this time

METAR text: EKAH 260820Z AUTO 20004KT 150V240 6000NDV SCT007/// OVC029/// 06/05 Q1014
Conditions at: EKAH (TIRSTRUP (CIV/MI, DK) observed 0820 UTC 26 January 2020
Temperature: 6.0°C (43°F)
Dewpoint: 5.0°C (41°F) [RH = 93%]
Pressure (altimeter): 29.94 inches Hg (1014.0 mb)
Winds: from the SSW (200 degrees) at 5 MPH (4 knots; 2.1 m/s)
Visibility: missing
Ceiling: 2900 feet AGL
Clouds: scattered clouds at 700 feet AGL
overcast cloud deck at 2900 feet AGL
Weather: no significant weather observed at this time

METAR text: EKAH 260750Z AUTO 23004KT 160V270 5000NDV OVC004/// 06/05 Q1014
Conditions at: EKAH (TIRSTRUP (CIV/MI, DK) observed 0750 UTC 26 January 2020
Temperature: 6.0°C (43°F)
Dewpoint: 5.0°C (41°F) [RH = 93%]
Pressure (altimeter): 29.94 inches Hg (1014.0 mb)
Winds: from the SW (230 degrees) at 5 MPH (4 knots; 2.1 m/s)
Visibility: missing
Ceiling: 400 feet AGL
Clouds: overcast cloud deck at 400 feet AGL
Weather: no significant weather observed at this time

METAR text: EKAH 260720Z AUTO 21004KT 150V290 3300NDV -RA BR OVC004/// 06/05 Q1014
Conditions at: EKAH (TIRSTRUP (CIV/MI, DK) observed 0720 UTC 26 January 2020
Temperature: 6.0°C (43°F)
Dewpoint: 5.0°C (41°F) [RH = 93%]
Pressure (altimeter): 29.94 inches Hg (1014.0 mb)
Winds: from the SSW (210 degrees) at 5 MPH (4 knots; 2.1 m/s)
Visibility: missing
Ceiling: 400 feet AGL
Clouds: overcast cloud deck at 400 feet AGL
Weather: -RA BR  (light rain, mist)

METAR text: EKAH 260650Z AUTO 21005KT 150V270 4400NDV BR OVC006/// 05/05 Q1013
Conditions at: EKAH (TIRSTRUP (CIV/MI, DK) observed 0650 UTC 26 January 2020
Temperature: 5.0°C (41°F)
Dewpoint: 5.0°C (41°F) [RH = 100%]
Pressure (altimeter): 29.91 inches Hg (1013.0 mb)
Winds: from the SSW (210 degrees) at 6 MPH (5 knots; 2.6 m/s)
Visibility: missing
Ceiling: 600 feet AGL
Clouds: overcast cloud deck at 600 feet AGL
Weather: BR  (mist)

METAR text: EKAH 260620Z AUTO 20004KT 130V270 4500NDV BR OVC013/// 05/05 Q1014
Conditions at: EKAH (TIRSTRUP (CIV/MI, DK) observed 0620 UTC 26 January 2020
Temperature: 5.0°C (41°F)
Dewpoint: 5.0°C (41°F) [RH = 100%]
Pressure (altimeter): 29.94 inches Hg (1014.0 mb)
Winds: from the SSW (200 degrees) at 5 MPH (4 knots; 2.1 m/s)
Visibility: missing
Ceiling: 1300 feet AGL
Clouds: overcast cloud deck at 1300 feet AGL
Weather: BR  (mist)

METAR text: EKAH 260550Z AUTO 20004KT 160V280 4900NDV BR OVC015/// 05/05 Q1014
Conditions at: EKAH (TIRSTRUP (CIV/MI, DK) observed 0550 UTC 26 January 2020
Temperature: 5.0°C (41°F)
Dewpoint: 5.0°C (41°F) [RH = 100%]
Pressure (altimeter): 29.94 inches Hg (1014.0 mb)
Winds: from the SSW (200 degrees) at 5 MPH (4 knots; 2.1 m/s)
Visibility: missing
Ceiling: 1500 feet AGL
Clouds: overcast cloud deck at 1500 feet AGL
Weather: BR  (mist)

METAR text: EKAH 260520Z AUTO 21004KT 170V250 7000NDV OVC025/// 06/05 Q1014
Conditions at: EKAH (TIRSTRUP (CIV/MI, DK) observed 0520 UTC 26 January 2020
Temperature: 6.0°C (43°F)
Dewpoint: 5.0°C (41°F) [RH = 93%]
Pressure (altimeter): 29.94 inches Hg (1014.0 mb)
Winds: from the SSW (210 degrees) at 5 MPH (4 knots; 2.1 m/s)
Visibility: missing
Ceiling: 2500 feet AGL
Clouds: overcast cloud deck at 2500 feet AGL
Weather: no significant weather observed at this time

METAR text: EKAH 260450Z AUTO 20005KT 150V260 7000NDV OVC023/// 06/05 Q1014
Conditions at: EKAH (TIRSTRUP (CIV/MI, DK) observed 0450 UTC 26 January 2020
Temperature: 6.0°C (43°F)
Dewpoint: 5.0°C (41°F) [RH = 93%]
Pressure (altimeter): 29.94 inches Hg (1014.0 mb)
Winds: from the SSW (200 degrees) at 6 MPH (5 knots; 2.6 m/s)
Visibility: missing
Ceiling: 2300 feet AGL
Clouds: overcast cloud deck at 2300 feet AGL
Weather: no significant weather observed at this time

METAR text: EKAH 260420Z AUTO 23005KT 170V280 9999NDV OVC023/// 06/05 Q1014
Conditions at: EKAH (TIRSTRUP (CIV/MI, DK) observed 0420 UTC 26 January 2020
Temperature: 6.0°C (43°F)
Dewpoint: 5.0°C (41°F) [RH = 93%]
Pressure (altimeter): 29.94 inches Hg (1014.0 mb)
Winds: from the SW (230 degrees) at 6 MPH (5 knots; 2.6 m/s)
Visibility: missing
Ceiling: 2300 feet AGL
Clouds: overcast cloud deck at 2300 feet AGL
Weather: no significant weather observed at this time

METAR text: EKAH 260350Z AUTO 22006KT 170V260 8000NDV OVC016/// 06/05 Q1014
Conditions at: EKAH (TIRSTRUP (CIV/MI, DK) observed 0350 UTC 26 January 2020
Temperature: 6.0°C (43°F)
Dewpoint: 5.0°C (41°F) [RH = 93%]
Pressure (altimeter): 29.94 inches Hg (1014.0 mb)
Winds: from the SW (220 degrees) at 7 MPH (6 knots; 3.1 m/s)
Visibility: missing
Ceiling: 1600 feet AGL
Clouds: overcast cloud deck at 1600 feet AGL
Weather: no significant weather observed at this time

METAR text: EKAH 260320Z AUTO 21005KT 160V270 3900NDV -DZ BR BKN004/// 06/05 Q1014
Conditions at: EKAH (TIRSTRUP (CIV/MI, DK) observed 0320 UTC 26 January 2020
Temperature: 6.0°C (43°F)
Dewpoint: 5.0°C (41°F) [RH = 93%]
Pressure (altimeter): 29.94 inches Hg (1014.0 mb)
Winds: from the SSW (210 degrees) at 6 MPH (5 knots; 2.6 m/s)
Visibility: missing
Ceiling: 400 feet AGL
Clouds: broken clouds at 400 feet AGL
Weather: -DZ BR  (light drizzle, mist)

METAR text: EKAH 260250Z AUTO 22004KT 170V250 4000NDV DZ BR OVC005/// 06/05 Q1014
Conditions at: EKAH (TIRSTRUP (CIV/MI, DK) observed 0250 UTC 26 January 2020
Temperature: 6.0°C (43°F)
Dewpoint: 5.0°C (41°F) [RH = 93%]
Pressure (altimeter): 29.94 inches Hg (1014.0 mb)
Winds: from the SW (220 degrees) at 5 MPH (4 knots; 2.1 m/s)
Visibility: missing
Ceiling: 500 feet AGL
Clouds: overcast cloud deck at 500 feet AGL
Weather: DZ BR  (moderate drizzle, mist)

METAR text: EKAH 260220Z AUTO 22005KT 180V270 4700NDV -RA BR OVC014/// 06/05 Q1014
Conditions at: EKAH (TIRSTRUP (CIV/MI, DK) observed 0220 UTC 26 January 2020
Temperature: 6.0°C (43°F)
Dewpoint: 5.0°C (41°F) [RH = 93%]
Pressure (altimeter): 29.94 inches Hg (1014.0 mb)
Winds: from the SW (220 degrees) at 6 MPH (5 knots; 2.6 m/s)
Visibility: missing
Ceiling: 1400 feet AGL
Clouds: overcast cloud deck at 1400 feet AGL
Weather: -RA BR  (light rain, mist)

METAR text: EKAH 260150Z AUTO 23004KT 170V270 9000NDV OVC018/// 06/05 Q1014
Conditions at: EKAH (TIRSTRUP (CIV/MI, DK) observed 0150 UTC 26 January 2020
Temperature: 6.0°C (43°F)
Dewpoint: 5.0°C (41°F) [RH = 93%]
Pressure (altimeter): 29.94 inches Hg (1014.0 mb)
Winds: from the SW (230 degrees) at 5 MPH (4 knots; 2.1 m/s)
Visibility: missing
Ceiling: 1800 feet AGL
Clouds: overcast cloud deck at 1800 feet AGL
Weather: no significant weather observed at this time

METAR text: EKAH 260120Z AUTO 23005KT 190V270 7000NDV BKN008/// 06/05 Q1014
Conditions at: EKAH (TIRSTRUP (CIV/MI, DK) observed 0120 UTC 26 January 2020
Temperature: 6.0°C (43°F)
Dewpoint: 5.0°C (41°F) [RH = 93%]
Pressure (altimeter): 29.94 inches Hg (1014.0 mb)
Winds: from the SW (230 degrees) at 6 MPH (5 knots; 2.6 m/s)
Visibility: missing
Ceiling: 800 feet AGL
Clouds: broken clouds at 800 feet AGL
Weather: no significant weather observed at this time

METAR text: EKAH 260050Z AUTO 23005KT 170V270 4200NDV DZ BR OVC005/// 06/06 Q1015
Conditions at: EKAH (TIRSTRUP (CIV/MI, DK) observed 0050 UTC 26 January 2020
Temperature: 6.0°C (43°F)
Dewpoint: 6.0°C (43°F) [RH = 100%]
Pressure (altimeter): 29.97 inches Hg (1015.0 mb)
Winds: from the SW (230 degrees) at 6 MPH (5 knots; 2.6 m/s)
Visibility: missing
Ceiling: 500 feet AGL
Clouds: overcast cloud deck at 500 feet AGL
Weather: DZ BR  (moderate drizzle, mist)

METAR text: EKAH 260020Z AUTO 21004KT 150V260 4800NDV DZ OVC010/// 06/05 Q1015
Conditions at: EKAH (TIRSTRUP (CIV/MI, DK) observed 0020 UTC 26 January 2020
Temperature: 6.0°C (43°F)
Dewpoint: 5.0°C (41°F) [RH = 93%]
Pressure (altimeter): 29.97 inches Hg (1015.0 mb)
Winds: from the SSW (210 degrees) at 5 MPH (4 knots; 2.1 m/s)
Visibility: missing
Ceiling: 1000 feet AGL
Clouds: overcast cloud deck at 1000 feet AGL
Weather: DZ  (moderate drizzle)

METAR text: EKAH 252350Z AUTO 23004KT 160V260 7000NDV OVC011/// 06/05 Q1015
Conditions at: EKAH (TIRSTRUP (CIV/MI, DK) observed 2350 UTC 25 January 2020
Temperature: 6.0°C (43°F)
Dewpoint: 5.0°C (41°F) [RH = 93%]
Pressure (altimeter): 29.97 inches Hg (1015.0 mb)
Winds: from the SW (230 degrees) at 5 MPH (4 knots; 2.1 m/s)
Visibility: missing
Ceiling: 1100 feet AGL
Clouds: overcast cloud deck at 1100 feet AGL
Weather: no significant weather observed at this time

METAR text: EKAH 252320Z AUTO 23006KT 180V260 8000NDV BKN011/// 06/05 Q1015
Conditions at: EKAH (TIRSTRUP (CIV/MI, DK) observed 2320 UTC 25 January 2020
Temperature: 6.0°C (43°F)
Dewpoint: 5.0°C (41°F) [RH = 93%]
Pressure (altimeter): 29.97 inches Hg (1015.0 mb)
Winds: from the SW (230 degrees) at 7 MPH (6 knots; 3.1 m/s)
Visibility: missing
Ceiling: 1100 feet AGL
Clouds: broken clouds at 1100 feet AGL
Weather: no significant weather observed at this time

METAR text: EKAH 252250Z AUTO 23006KT 190V280 9999NDV BKN013/// 06/05 Q1015
Conditions at: EKAH (TIRSTRUP (CIV/MI, DK) observed 2250 UTC 25 January 2020
Temperature: 6.0°C (43°F)
Dewpoint: 5.0°C (41°F) [RH = 93%]
Pressure (altimeter): 29.97 inches Hg (1015.0 mb)
Winds: from the SW (230 degrees) at 7 MPH (6 knots; 3.1 m/s)
Visibility: missing
Ceiling: 1300 feet AGL
Clouds: broken clouds at 1300 feet AGL
Weather: no significant weather observed at this time

METAR text: EKAH 252220Z AUTO 22006KT 150V270 9999NDV BKN013/// 06/05 Q1015
Conditions at: EKAH (TIRSTRUP (CIV/MI, DK) observed 2220 UTC 25 January 2020
Temperature: 6.0°C (43°F)
Dewpoint: 5.0°C (41°F) [RH = 93%]
Pressure (altimeter): 29.97 inches Hg (1015.0 mb)
Winds: from the SW (220 degrees) at 7 MPH (6 knots; 3.1 m/s)
Visibility: missing
Ceiling: 1300 feet AGL
Clouds: broken clouds at 1300 feet AGL
Weather: no significant weather observed at this time

METAR text: EKAH 252150Z AUTO 25004KT 210V290 5000NDV DZ BKN007/// 06/06 Q1015
Conditions at: EKAH (TIRSTRUP (CIV/MI, DK) observed 2150 UTC 25 January 2020
Temperature: 6.0°C (43°F)
Dewpoint: 6.0°C (43°F) [RH = 100%]
Pressure (altimeter): 29.97 inches Hg (1015.0 mb)
Winds: from the WSW (250 degrees) at 5 MPH (4 knots; 2.1 m/s)
Visibility: missing
Ceiling: 700 feet AGL
Clouds: broken clouds at 700 feet AGL
Weather: DZ  (moderate drizzle)

METAR text: EKAH 252120Z AUTO 22006KT 170V270 6000NDV BKN011/// 06/06 Q1015
Conditions at: EKAH (TIRSTRUP (CIV/MI, DK) observed 2120 UTC 25 January 2020
Temperature: 6.0°C (43°F)
Dewpoint: 6.0°C (43°F) [RH = 100%]
Pressure (altimeter): 29.97 inches Hg (1015.0 mb)
Winds: from the SW (220 degrees) at 7 MPH (6 knots; 3.1 m/s)
Visibility: missing
Ceiling: 1100 feet AGL
Clouds: broken clouds at 1100 feet AGL
Weather: no significant weather observed at this time

METAR text: EKAH 252050Z AUTO 22004KT 180V270 9999NDV -SHRA OVC009/// 06/05 Q1015
Conditions at: EKAH (TIRSTRUP (CIV/MI, DK) observed 2050 UTC 25 January 2020
Temperature: 6.0°C (43°F)
Dewpoint: 5.0°C (41°F) [RH = 93%]
Pressure (altimeter): 29.97 inches Hg (1015.0 mb)
Winds: from the SW (220 degrees) at 5 MPH (4 knots; 2.1 m/s)
Visibility: missing
Ceiling: 900 feet AGL
Clouds: overcast cloud deck at 900 feet AGL
Weather: -SHRA  (light rain showers)

METAR text: EKAH 252020Z AUTO 22004KT 160V260 9999NDV BKN020/// 06/05 Q1016
Conditions at: EKAH (TIRSTRUP (CIV/MI, DK) observed 2020 UTC 25 January 2020
Temperature: 6.0°C (43°F)
Dewpoint: 5.0°C (41°F) [RH = 93%]
Pressure (altimeter): 30.00 inches Hg (1016.0 mb)
Winds: from the SW (220 degrees) at 5 MPH (4 knots; 2.1 m/s)
Visibility: missing
Ceiling: 2000 feet AGL
Clouds: broken clouds at 2000 feet AGL
Weather: no significant weather observed at this time

METAR text: EKAH 251950Z AUTO 23005KT 190V270 9999NDV OVC013/// 06/05 Q1016
Conditions at: EKAH (TIRSTRUP (CIV/MI, DK) observed 1950 UTC 25 January 2020
Temperature: 6.0°C (43°F)
Dewpoint: 5.0°C (41°F) [RH = 93%]
Pressure (altimeter): 30.00 inches Hg (1016.0 mb)
Winds: from the SW (230 degrees) at 6 MPH (5 knots; 2.6 m/s)
Visibility: missing
Ceiling: 1300 feet AGL
Clouds: overcast cloud deck at 1300 feet AGL
Weather: no significant weather observed at this time

METAR text: EKAH 251920Z AUTO 23003KT 9999NDV OVC012/// 06/06 Q1016
Conditions at: EKAH (TIRSTRUP (CIV/MI, DK) observed 1920 UTC 25 January 2020
Temperature: 6.0°C (43°F)
Dewpoint: 6.0°C (43°F) [RH = 100%]
Pressure (altimeter): 30.00 inches Hg (1016.0 mb)
Winds: from the SW (230 degrees) at 3 MPH (3 knots; 1.5 m/s)
Visibility: missing
Ceiling: 1200 feet AGL
Clouds: overcast cloud deck at 1200 feet AGL
Weather: no significant weather observed at this time

METAR text: EKAH 251850Z AUTO 23006KT 180V280 7000NDV -DZ BKN007/// 07/06 Q1016
Conditions at: EKAH (TIRSTRUP (CIV/MI, DK) observed 1850 UTC 25 January 2020
Temperature: 7.0°C (45°F)
Dewpoint: 6.0°C (43°F) [RH = 93%]
Pressure (altimeter): 30.00 inches Hg (1016.0 mb)
Winds: from the SW (230 degrees) at 7 MPH (6 knots; 3.1 m/s)
Visibility: missing
Ceiling: 700 feet AGL
Clouds: broken clouds at 700 feet AGL
Weather: -DZ  (light drizzle)

METAR text: EKAH 251820Z AUTO 23004KT 190V270 9999NDV FEW009/// BKN018/// 07/06 Q1016
Conditions at: EKAH (TIRSTRUP (CIV/MI, DK) observed 1820 UTC 25 January 2020
Temperature: 7.0°C (45°F)
Dewpoint: 6.0°C (43°F) [RH = 93%]
Pressure (altimeter): 30.00 inches Hg (1016.0 mb)
Winds: from the SW (230 degrees) at 5 MPH (4 knots; 2.1 m/s)
Visibility: missing
Ceiling: 1800 feet AGL
Clouds: few clouds at 900 feet AGL
broken clouds at 1800 feet AGL
Weather: no significant weather observed at this time

METAR text: EKAH 251750Z AUTO 23005KT 200V280 9999NDV -SHRA BKN004/// 07/06 Q1016
Conditions at: EKAH (TIRSTRUP (CIV/MI, DK) observed 1750 UTC 25 January 2020
Temperature: 7.0°C (45°F)
Dewpoint: 6.0°C (43°F) [RH = 93%]
Pressure (altimeter): 30.00 inches Hg (1016.0 mb)
Winds: from the SW (230 degrees) at 6 MPH (5 knots; 2.6 m/s)
Visibility: missing
Ceiling: 400 feet AGL
Clouds: broken clouds at 400 feet AGL
Weather: -SHRA  (light rain showers)

METAR text: EKAH 251720Z AUTO 23004KT 190V270 5000NDV -RA BKN005/// BKN006/// 07/07 Q1016
Conditions at: EKAH (TIRSTRUP (CIV/MI, DK) observed 1720 UTC 25 January 2020
Temperature: 7.0°C (45°F)
Dewpoint: 7.0°C (45°F) [RH = 100%]
Pressure (altimeter): 30.00 inches Hg (1016.0 mb)
Winds: from the SW (230 degrees) at 5 MPH (4 knots; 2.1 m/s)
Visibility: missing
Ceiling: 500 feet AGL
Clouds: broken clouds at 500 feet AGL
broken clouds at 600 feet AGL
Weather: -RA  (light rain)

METAR text: EKAH 251650Z AUTO 22004KT 190V260 4900NDV BR BKN008/// 07/06 Q1016
Conditions at: EKAH (TIRSTRUP (CIV/MI, DK) observed 1650 UTC 25 January 2020
Temperature: 7.0°C (45°F)
Dewpoint: 6.0°C (43°F) [RH = 93%]
Pressure (altimeter): 30.00 inches Hg (1016.0 mb)
Winds: from the SW (220 degrees) at 5 MPH (4 knots; 2.1 m/s)
Visibility: missing
Ceiling: 800 feet AGL
Clouds: broken clouds at 800 feet AGL
Weather: BR  (mist)

METAR text: EKAH 251620Z AUTO 23005KT 170V310 6000NDV -SHRA BKN005/// BKN021/// 07/06 Q1015
Conditions at: EKAH (TIRSTRUP (CIV/MI, DK) observed 1620 UTC 25 January 2020
Temperature: 7.0°C (45°F)
Dewpoint: 6.0°C (43°F) [RH = 93%]
Pressure (altimeter): 29.97 inches Hg (1015.0 mb)
Winds: from the SW (230 degrees) at 6 MPH (5 knots; 2.6 m/s)
Visibility: missing
Ceiling: 500 feet AGL
Clouds: broken clouds at 500 feet AGL
broken clouds at 2100 feet AGL
Weather: -SHRA  (light rain showers)

METAR text: EKAH 251550Z AUTO 21003KT 9000NDV OVC013/// 07/06 Q1015
Conditions at: EKAH (TIRSTRUP (CIV/MI, DK) observed 1550 UTC 25 January 2020
Temperature: 7.0°C (45°F)
Dewpoint: 6.0°C (43°F) [RH = 93%]
Pressure (altimeter): 29.97 inches Hg (1015.0 mb)
Winds: from the SSW (210 degrees) at 3 MPH (3 knots; 1.5 m/s)
Visibility: missing
Ceiling: 1300 feet AGL
Clouds: overcast cloud deck at 1300 feet AGL
Weather: no significant weather observed at this time

METAR text: EKAH 251520Z AUTO 23005KT 180V280 9999NDV BKN029/// 07/06 Q1015
Conditions at: EKAH (TIRSTRUP (CIV/MI, DK) observed 1520 UTC 25 January 2020
Temperature: 7.0°C (45°F)
Dewpoint: 6.0°C (43°F) [RH = 93%]
Pressure (altimeter): 29.97 inches Hg (1015.0 mb)
Winds: from the SW (230 degrees) at 6 MPH (5 knots; 2.6 m/s)
Visibility: missing
Ceiling: 2900 feet AGL
Clouds: broken clouds at 2900 feet AGL
Weather: no significant weather observed at this time

METAR text: EKAH 251450Z AUTO 20002KT 9999NDV BKN029/// 07/06 Q1015
Conditions at: EKAH (TIRSTRUP (CIV/MI, DK) observed 1450 UTC 25 January 2020
Temperature: 7.0°C (45°F)
Dewpoint: 6.0°C (43°F) [RH = 93%]
Pressure (altimeter): 29.97 inches Hg (1015.0 mb)
Winds: from the SSW (200 degrees) at 2 MPH (2 knots; 1.0 m/s)
Visibility: missing
Ceiling: 2900 feet AGL
Clouds: broken clouds at 2900 feet AGL
Weather: no significant weather observed at this time

METAR text: EKAH 251420Z AUTO 22003KT 9999NDV BKN029/// 07/06 Q1016
Conditions at: EKAH (TIRSTRUP (CIV/MI, DK) observed 1420 UTC 25 January 2020
Temperature: 7.0°C (45°F)
Dewpoint: 6.0°C (43°F) [RH = 93%]
Pressure (altimeter): 30.00 inches Hg (1016.0 mb)
Winds: from the SW (220 degrees) at 3 MPH (3 knots; 1.5 m/s)
Visibility: missing
Ceiling: 2900 feet AGL
Clouds: broken clouds at 2900 feet AGL
Weather: no significant weather observed at this time

METAR text: EKAH 251350Z AUTO 24005KT 210V270 9999NDV BKN024/// 07/06 Q1016
Conditions at: EKAH (TIRSTRUP (CIV/MI, DK) observed 1350 UTC 25 January 2020
Temperature: 7.0°C (45°F)
Dewpoint: 6.0°C (43°F) [RH = 93%]
Pressure (altimeter): 30.00 inches Hg (1016.0 mb)
Winds: from the WSW (240 degrees) at 6 MPH (5 knots; 2.6 m/s)
Visibility: missing
Ceiling: 2400 feet AGL
Clouds: broken clouds at 2400 feet AGL
Weather: no significant weather observed at this time

METAR text: EKAH 251320Z AUTO 24005KT 200V280 9999NDV BKN019/// 07/05 Q1016
Conditions at: EKAH (TIRSTRUP (CIV/MI, DK) observed 1320 UTC 25 January 2020
Temperature: 7.0°C (45°F)
Dewpoint: 5.0°C (41°F) [RH = 87%]
Pressure (altimeter): 30.00 inches Hg (1016.0 mb)
Winds: from the WSW (240 degrees) at 6 MPH (5 knots; 2.6 m/s)
Visibility: missing
Ceiling: 1900 feet AGL
Clouds: broken clouds at 1900 feet AGL
Weather: no significant weather observed at this time

METAR text: EKAH 251250Z AUTO 24005KT 200V270 9999NDV BKN017/// 07/05 Q1016
Conditions at: EKAH (TIRSTRUP (CIV/MI, DK) observed 1250 UTC 25 January 2020
Temperature: 7.0°C (45°F)
Dewpoint: 5.0°C (41°F) [RH = 87%]
Pressure (altimeter): 30.00 inches Hg (1016.0 mb)
Winds: from the WSW (240 degrees) at 6 MPH (5 knots; 2.6 m/s)
Visibility: missing
Ceiling: 1700 feet AGL
Clouds: broken clouds at 1700 feet AGL
Weather: no significant weather observed at this time

METAR text: EKAH 251220Z AUTO 25007KT 210V280 9999NDV BKN015/// 08/06 Q1016
Conditions at: EKAH (TIRSTRUP (CIV/MI, DK) observed 1220 UTC 25 January 2020
Temperature: 8.0°C (46°F)
Dewpoint: 6.0°C (43°F) [RH = 87%]
Pressure (altimeter): 30.00 inches Hg (1016.0 mb)
Winds: from the WSW (250 degrees) at 8 MPH (7 knots; 3.6 m/s)
Visibility: missing
Ceiling: 1500 feet AGL
Clouds: broken clouds at 1500 feet AGL
Weather: no significant weather observed at this time

METAR text: EKAH 251150Z AUTO 25004KT 190V280 9999NDV BKN024/// 08/06 Q1016
Conditions at: EKAH (TIRSTRUP (CIV/MI, DK) observed 1150 UTC 25 January 2020
Temperature: 8.0°C (46°F)
Dewpoint: 6.0°C (43°F) [RH = 87%]
Pressure (altimeter): 30.00 inches Hg (1016.0 mb)
Winds: from the WSW (250 degrees) at 5 MPH (4 knots; 2.1 m/s)
Visibility: missing
Ceiling: 2400 feet AGL
Clouds: broken clouds at 2400 feet AGL
Weather: no significant weather observed at this time

METAR text: EKAH 251120Z AUTO 25006KT 200V280 9999NDV BKN019/// 07/06 Q1017
Conditions at: EKAH (TIRSTRUP (CIV/MI, DK) observed 1120 UTC 25 January 2020
Temperature: 7.0°C (45°F)
Dewpoint: 6.0°C (43°F) [RH = 93%]
Pressure (altimeter): 30.03 inches Hg (1017.0 mb)
Winds: from the WSW (250 degrees) at 7 MPH (6 knots; 3.1 m/s)
Visibility: missing
Ceiling: 1900 feet AGL
Clouds: broken clouds at 1900 feet AGL
Weather: no significant weather observed at this time

METAR text: EKAH 251050Z AUTO 24005KT 200V280 9999NDV FEW005/// BKN021/// 07/06 Q1017
Conditions at: EKAH (TIRSTRUP (CIV/MI, DK) observed 1050 UTC 25 January 2020
Temperature: 7.0°C (45°F)
Dewpoint: 6.0°C (43°F) [RH = 93%]
Pressure (altimeter): 30.03 inches Hg (1017.0 mb)
Winds: from the WSW (240 degrees) at 6 MPH (5 knots; 2.6 m/s)
Visibility: missing
Ceiling: 2100 feet AGL
Clouds: few clouds at 500 feet AGL
broken clouds at 2100 feet AGL
Weather: no significant weather observed at this time

METAR text: EKAH 251020Z AUTO 25003KT 9999NDV SCT003/// 06/06 Q1017
Conditions at: EKAH (TIRSTRUP (CIV/MI, DK) observed 1020 UTC 25 January 2020
Temperature: 6.0°C (43°F)
Dewpoint: 6.0°C (43°F) [RH = 100%]
Pressure (altimeter): 30.03 inches Hg (1017.0 mb)
Winds: from the WSW (250 degrees) at 3 MPH (3 knots; 1.5 m/s)
Visibility: missing
Ceiling: at least 12,000 feet AGL
Clouds: scattered clouds at 300 feet AGL
Weather: no significant weather observed at this time

METAR text: EKAH 250950Z AUTO 24005KT 200V280 9999NDV SCT003/// SCT025/// 06/05 Q1017
Conditions at: EKAH (TIRSTRUP (CIV/MI, DK) observed 0950 UTC 25 January 2020
Temperature: 6.0°C (43°F)
Dewpoint: 5.0°C (41°F) [RH = 93%]
Pressure (altimeter): 30.03 inches Hg (1017.0 mb)
Winds: from the WSW (240 degrees) at 6 MPH (5 knots; 2.6 m/s)
Visibility: missing
Ceiling: at least 12,000 feet AGL
Clouds: scattered clouds at 300 feet AGL
scattered clouds at 2500 feet AGL
Weather: no significant weather observed at this time

METAR text: EKAH 250920Z AUTO 23005KT 170V270 9999NDV NCD 05/05 Q1017
Conditions at: EKAH (TIRSTRUP (CIV/MI, DK) observed 0920 UTC 25 January 2020
Temperature: 5.0°C (41°F)
Dewpoint: 5.0°C (41°F) [RH = 100%]
Pressure (altimeter): 30.03 inches Hg (1017.0 mb)
Winds: from the SW (230 degrees) at 6 MPH (5 knots; 2.6 m/s)
Visibility: missing
Ceiling: at least 12,000 feet AGL
Clouds: sky clear below 12,000 feet AGL
Weather: no significant weather observed at this time

METAR text: EKAH 250850Z AUTO 25005KT 220V280 9999NDV NCD 05/04 Q1016
Conditions at: EKAH (TIRSTRUP (CIV/MI, DK) observed 0850 UTC 25 January 2020
Temperature: 5.0°C (41°F)
Dewpoint: 4.0°C (39°F) [RH = 93%]
Pressure (altimeter): 30.00 inches Hg (1016.0 mb)
Winds: from the WSW (250 degrees) at 6 MPH (5 knots; 2.6 m/s)
Visibility: missing
Ceiling: at least 12,000 feet AGL
Clouds: sky clear below 12,000 feet AGL
Weather: no significant weather observed at this time

METAR text: EKAH 250820Z AUTO 25006KT 220V280 9999NDV FEW006/// 04/04 Q1016
Conditions at: EKAH (TIRSTRUP (CIV/MI, DK) observed 0820 UTC 25 January 2020
Temperature: 4.0°C (39°F)
Dewpoint: 4.0°C (39°F) [RH = 100%]
Pressure (altimeter): 30.00 inches Hg (1016.0 mb)
Winds: from the WSW (250 degrees) at 7 MPH (6 knots; 3.1 m/s)
Visibility: missing
Ceiling: at least 12,000 feet AGL
Clouds: few clouds at 600 feet AGL
Weather: no significant weather observed at this time

METAR text: EKAH 250750Z AUTO 24006KT 210V270 9999NDV FEW007/// FEW077/// FEW086/// 04/04 Q1016
Conditions at: EKAH (TIRSTRUP (CIV/MI, DK) observed 0750 UTC 25 January 2020
Temperature: 4.0°C (39°F)
Dewpoint: 4.0°C (39°F) [RH = 100%]
Pressure (altimeter): 30.00 inches Hg (1016.0 mb)
Winds: from the WSW (240 degrees) at 7 MPH (6 knots; 3.1 m/s)
Visibility: missing
Ceiling: at least 12,000 feet AGL
Clouds: few clouds at 700 feet AGL
few clouds at 7700 feet AGL
few clouds at 8600 feet AGL
Weather: no significant weather observed at this time

METAR text: EKAH 250720Z AUTO 25007KT 9999NDV OVC089/// 04/04 Q1016
Conditions at: EKAH (TIRSTRUP (CIV/MI, DK) observed 0720 UTC 25 January 2020
Temperature: 4.0°C (39°F)
Dewpoint: 4.0°C (39°F) [RH = 100%]
Pressure (altimeter): 30.00 inches Hg (1016.0 mb)
Winds: from the WSW (250 degrees) at 8 MPH (7 knots; 3.6 m/s)
Visibility: missing
Ceiling: 8900 feet AGL
Clouds: overcast cloud deck at 8900 feet AGL
Weather: no significant weather observed at this time

METAR text: EKAH 250650Z AUTO 24006KT 9999NDV FEW007/// BKN093/// BKN120/// 04/04 Q1016
Conditions at: EKAH (TIRSTRUP (CIV/MI, DK) observed 0650 UTC 25 January 2020
Temperature: 4.0°C (39°F)
Dewpoint: 4.0°C (39°F) [RH = 100%]
Pressure (altimeter): 30.00 inches Hg (1016.0 mb)
Winds: from the WSW (240 degrees) at 7 MPH (6 knots; 3.1 m/s)
Visibility: missing
Ceiling: 9300 feet AGL
Clouds: few clouds at 700 feet AGL
broken clouds at 9300 feet AGL
broken clouds at 12000 feet AGL
Weather: no significant weather observed at this time

METAR text: EKAH 250620Z AUTO 24006KT 9999NDV BKN098/// BKN120/// 05/04 Q1015
Conditions at: EKAH (TIRSTRUP (CIV/MI, DK) observed 0620 UTC 25 January 2020
Temperature: 5.0°C (41°F)
Dewpoint: 4.0°C (39°F) [RH = 93%]
Pressure (altimeter): 29.97 inches Hg (1015.0 mb)
Winds: from the WSW (240 degrees) at 7 MPH (6 knots; 3.1 m/s)
Visibility: missing
Ceiling: 9800 feet AGL
Clouds: broken clouds at 9800 feet AGL
broken clouds at 12000 feet AGL
Weather: no significant weather observed at this time

METAR text: EKAH 250550Z AUTO 25007KT 9999NDV BKN098/// BKN130/// 05/04 Q1015
Conditions at: EKAH (TIRSTRUP (CIV/MI, DK) observed 0550 UTC 25 January 2020
Temperature: 5.0°C (41°F)
Dewpoint: 4.0°C (39°F) [RH = 93%]
Pressure (altimeter): 29.97 inches Hg (1015.0 mb)
Winds: from the WSW (250 degrees) at 8 MPH (7 knots; 3.6 m/s)
Visibility: missing
Ceiling: 9800 feet AGL
Clouds: broken clouds at 9800 feet AGL
broken clouds at 13000 feet AGL
Weather: no significant weather observed at this time

METAR text: EKAH 250520Z AUTO 24005KT 200V260 9999NDV BKN110/// 05/04 Q1015
Conditions at: EKAH (TIRSTRUP (CIV/MI, DK) observed 0520 UTC 25 January 2020
Temperature: 5.0°C (41°F)
Dewpoint: 4.0°C (39°F) [RH = 93%]
Pressure (altimeter): 29.97 inches Hg (1015.0 mb)
Winds: from the WSW (240 degrees) at 6 MPH (5 knots; 2.6 m/s)
Visibility: missing
Ceiling: 11000 feet AGL
Clouds: broken clouds at 11000 feet AGL
Weather: no significant weather observed at this time

METAR text: EKAH 250450Z AUTO 24006KT 9999NDV BKN110/// 05/04 Q1015
Conditions at: EKAH (TIRSTRUP (CIV/MI, DK) observed 0450 UTC 25 January 2020
Temperature: 5.0°C (41°F)
Dewpoint: 4.0°C (39°F) [RH = 93%]
Pressure (altimeter): 29.97 inches Hg (1015.0 mb)
Winds: from the WSW (240 degrees) at 7 MPH (6 knots; 3.1 m/s)
Visibility: missing
Ceiling: 11000 feet AGL
Clouds: broken clouds at 11000 feet AGL
Weather: no significant weather observed at this time

METAR text: EKAH 250420Z AUTO 24006KT 210V270 9999NDV OVC110/// 05/04 Q1015
Conditions at: EKAH (TIRSTRUP (CIV/MI, DK) observed 0420 UTC 25 January 2020
Temperature: 5.0°C (41°F)
Dewpoint: 4.0°C (39°F) [RH = 93%]
Pressure (altimeter): 29.97 inches Hg (1015.0 mb)
Winds: from the WSW (240 degrees) at 7 MPH (6 knots; 3.1 m/s)
Visibility: missing
Ceiling: 11000 feet AGL
Clouds: overcast cloud deck at 11000 feet AGL
Weather: no significant weather observed at this time

METAR text: EKAH 250350Z AUTO 25007KT 9999NDV BKN120/// 04/04 Q1015
Conditions at: EKAH (TIRSTRUP (CIV/MI, DK) observed 0350 UTC 25 January 2020
Temperature: 4.0°C (39°F)
Dewpoint: 4.0°C (39°F) [RH = 100%]
Pressure (altimeter): 29.97 inches Hg (1015.0 mb)
Winds: from the WSW (250 degrees) at 8 MPH (7 knots; 3.6 m/s)
Visibility: missing
Ceiling: 12000 feet AGL
Clouds: broken clouds at 12000 feet AGL
Weather: no significant weather observed at this time

METAR text: EKAH 250320Z AUTO 25006KT 220V280 9999NDV BKN140/// 04/04 Q1015
Conditions at: EKAH (TIRSTRUP (CIV/MI, DK) observed 0320 UTC 25 January 2020
Temperature: 4.0°C (39°F)
Dewpoint: 4.0°C (39°F) [RH = 100%]
Pressure (altimeter): 29.97 inches Hg (1015.0 mb)
Winds: from the WSW (250 degrees) at 7 MPH (6 knots; 3.1 m/s)
Visibility: missing
Ceiling: 14000 feet AGL
Clouds: broken clouds at 14000 feet AGL
Weather: no significant weather observed at this time

METAR text: EKAH 250250Z AUTO 26007KT 9999NDV FEW240/// 04/04 Q1015
Conditions at: EKAH (TIRSTRUP (CIV/MI, DK) observed 0250 UTC 25 January 2020
Temperature: 4.0°C (39°F)
Dewpoint: 4.0°C (39°F) [RH = 100%]
Pressure (altimeter): 29.97 inches Hg (1015.0 mb)
Winds: from the W (260 degrees) at 8 MPH (7 knots; 3.6 m/s)
Visibility: missing
Ceiling: at least 12,000 feet AGL
Clouds: few clouds at 24000 feet AGL
Weather: no significant weather observed at this time

METAR text: EKAH 250220Z AUTO 26006KT 9999NDV SCT240/// 04/04 Q1015
Conditions at: EKAH (TIRSTRUP (CIV/MI, DK) observed 0220 UTC 25 January 2020
Temperature: 4.0°C (39°F)
Dewpoint: 4.0°C (39°F) [RH = 100%]
Pressure (altimeter): 29.97 inches Hg (1015.0 mb)
Winds: from the W (260 degrees) at 7 MPH (6 knots; 3.1 m/s)
Visibility: missing
Ceiling: at least 12,000 feet AGL
Clouds: scattered clouds at 24000 feet AGL
Weather: no significant weather observed at this time

METAR text: EKAH 250150Z AUTO 26006KT 9999NDV NCD 04/04 Q1015
Conditions at: EKAH (TIRSTRUP (CIV/MI, DK) observed 0150 UTC 25 January 2020
Temperature: 4.0°C (39°F)
Dewpoint: 4.0°C (39°F) [RH = 100%]
Pressure (altimeter): 29.97 inches Hg (1015.0 mb)
Winds: from the W (260 degrees) at 7 MPH (6 knots; 3.1 m/s)
Visibility: missing
Ceiling: at least 12,000 feet AGL
Clouds: sky clear below 12,000 feet AGL
Weather: no significant weather observed at this time

METAR text: EKAH 250120Z AUTO 25007KT 9999NDV NCD 04/04 Q1015
Conditions at: EKAH (TIRSTRUP (CIV/MI, DK) observed 0120 UTC 25 January 2020
Temperature: 4.0°C (39°F)
Dewpoint: 4.0°C (39°F) [RH = 100%]
Pressure (altimeter): 29.97 inches Hg (1015.0 mb)
Winds: from the WSW (250 degrees) at 8 MPH (7 knots; 3.6 m/s)
Visibility: missing
Ceiling: at least 12,000 feet AGL
Clouds: sky clear below 12,000 feet AGL
Weather: no significant weather observed at this time

METAR text: EKAH 250050Z AUTO 26008KT 9999NDV FEW008/// 04/04 Q1015
Conditions at: EKAH (TIRSTRUP (CIV/MI, DK) observed 0050 UTC 25 January 2020
Temperature: 4.0°C (39°F)
Dewpoint: 4.0°C (39°F) [RH = 100%]
Pressure (altimeter): 29.97 inches Hg (1015.0 mb)
Winds: from the W (260 degrees) at 9 MPH (8 knots; 4.1 m/s)
Visibility: missing
Ceiling: at least 12,000 feet AGL
Clouds: few clouds at 800 feet AGL
Weather: no significant weather observed at this time

METAR text: EKAH 250020Z AUTO 26007KT 220V290 9999NDV FEW009/// 05/04 Q1015
Conditions at: EKAH (TIRSTRUP (CIV/MI, DK) observed 0020 UTC 25 January 2020
Temperature: 5.0°C (41°F)
Dewpoint: 4.0°C (39°F) [RH = 93%]
Pressure (altimeter): 29.97 inches Hg (1015.0 mb)
Winds: from the W (260 degrees) at 8 MPH (7 knots; 3.6 m/s)
Visibility: missing
Ceiling: at least 12,000 feet AGL
Clouds: few clouds at 900 feet AGL
Weather: no significant weather observed at this time

METAR text: EKAH 242350Z AUTO 25007KT 9999NDV FEW009/// 05/04 Q1015
Conditions at: EKAH (TIRSTRUP (CIV/MI, DK) observed 2350 UTC 24 January 2020
Temperature: 5.0°C (41°F)
Dewpoint: 4.0°C (39°F) [RH = 93%]
Pressure (altimeter): 29.97 inches Hg (1015.0 mb)
Winds: from the WSW (250 degrees) at 8 MPH (7 knots; 3.6 m/s)
Visibility: missing
Ceiling: at least 12,000 feet AGL
Clouds: few clouds at 900 feet AGL
Weather: no significant weather observed at this time

METAR text: EKAH 242320Z AUTO 25007KT 9999NDV SCT008/// SCT024/// 05/04 Q1015
Conditions at: EKAH (TIRSTRUP (CIV/MI, DK) observed 2320 UTC 24 January 2020
Temperature: 5.0°C (41°F)
Dewpoint: 4.0°C (39°F) [RH = 93%]
Pressure (altimeter): 29.97 inches Hg (1015.0 mb)
Winds: from the WSW (250 degrees) at 8 MPH (7 knots; 3.6 m/s)
Visibility: missing
Ceiling: at least 12,000 feet AGL
Clouds: scattered clouds at 800 feet AGL
scattered clouds at 2400 feet AGL
Weather: no significant weather observed at this time

METAR text: EKAH 242250Z AUTO 26009KT 230V290 9999NDV FEW010/// BKN026/// 05/05 Q1015
Conditions at: EKAH (TIRSTRUP (CIV/MI, DK) observed 2250 UTC 24 January 2020
Temperature: 5.0°C (41°F)
Dewpoint: 5.0°C (41°F) [RH = 100%]
Pressure (altimeter): 29.97 inches Hg (1015.0 mb)
Winds: from the W (260 degrees) at 10 MPH (9 knots; 4.6 m/s)
Visibility: missing
Ceiling: 2600 feet AGL
Clouds: few clouds at 1000 feet AGL
broken clouds at 2600 feet AGL
Weather: no significant weather observed at this time

METAR text: EKAH 242220Z AUTO 26007KT 220V290 9999NDV FEW006/// 05/04 Q1015
Conditions at: EKAH (TIRSTRUP (CIV/MI, DK) observed 2220 UTC 24 January 2020
Temperature: 5.0°C (41°F)
Dewpoint: 4.0°C (39°F) [RH = 93%]
Pressure (altimeter): 29.97 inches Hg (1015.0 mb)
Winds: from the W (260 degrees) at 8 MPH (7 knots; 3.6 m/s)
Visibility: missing
Ceiling: at least 12,000 feet AGL
Clouds: few clouds at 600 feet AGL
Weather: no significant weather observed at this time

METAR text: EKAH 242150Z AUTO 26008KT 9999NDV SCT009/// 05/04 Q1015
Conditions at: EKAH (TIRSTRUP (CIV/MI, DK) observed 2150 UTC 24 January 2020
Temperature: 5.0°C (41°F)
Dewpoint: 4.0°C (39°F) [RH = 93%]
Pressure (altimeter): 29.97 inches Hg (1015.0 mb)
Winds: from the W (260 degrees) at 9 MPH (8 knots; 4.1 m/s)
Visibility: missing
Ceiling: at least 12,000 feet AGL
Clouds: scattered clouds at 900 feet AGL
Weather: no significant weather observed at this time

METAR text: EKAH 242120Z AUTO 26008KT 9999NDV FEW014/// 06/05 Q1015
Conditions at: EKAH (TIRSTRUP (CIV/MI, DK) observed 2120 UTC 24 January 2020
Temperature: 6.0°C (43°F)
Dewpoint: 5.0°C (41°F) [RH = 93%]
Pressure (altimeter): 29.97 inches Hg (1015.0 mb)
Winds: from the W (260 degrees) at 9 MPH (8 knots; 4.1 m/s)
Visibility: missing
Ceiling: at least 12,000 feet AGL
Clouds: few clouds at 1400 feet AGL
Weather: no significant weather observed at this time

Forecast for: AMD
Text: TAF AMD EKAH 260751Z 2607/2706 21007KT 8000 SCT006 BKN020
Forecast period: 0700 UTC 26 January 2020 to 0600 UTC 27 January 2020
Forecast type: FROM: standard forecast or significant change
Winds: from the SSW (210 degrees) at 8 MPH (7 knots; 3.6 m/s)
Visibility: 5 miles (8 km)
Ceiling: 2000 feet AGL
Clouds: scattered clouds at 600 feet AGL
broken clouds at 2000 feet AGL
Weather: no significant weather forecast for this period
Text: TEMPO 2607/2609 3000 BR BKN004
Forecast period: 0700 to 0900 UTC 26 January 2020
Forecast type: TEMPORARY: The following changes expected for less than half the time period
Visibility: 1.86 miles (2.99 km)
Ceiling: 400 feet AGL
Clouds: broken clouds at 400 feet AGL
Weather: BR  (mist)
Text: TEMPO 2609/2615 4000 BR BKN006
Forecast period: 0900 to 1500 UTC 26 January 2020
Forecast type: TEMPORARY: The following changes expected for less than half the time period
Visibility: 2.49 miles (4.01 km)
Ceiling: 600 feet AGL
Clouds: broken clouds at 600 feet AGL
Weather: BR  (mist)
Text: TEMPO 2615/2624 2500 -DZ BR BKN004
Forecast period: 1500 UTC 26 January 2020 to 0000 UTC 27 January 2020
Forecast type: TEMPORARY: The following changes expected for less than half the time period
Visibility: 1.55 miles (2.49 km)
Ceiling: 400 feet AGL
Clouds: broken clouds at 400 feet AGL
Weather: -DZ BR  (light drizzle, mist)
Text: PROB40 2700/2706 0200 FG VV002
Forecast period: 0000 to 0600 UTC 27 January 2020
Forecast type: PROBABLE: 40 percent likelihood of the following during this time
Visibility: 0.12 miles (0.19 km)
Ceiling: indefinite ceiling with vertical visibility of 200 feet AGL
Clouds: obscured sky
Weather: FG  (fog)